Airfield :
LOGIN :

Register | Disclaimer

   EN    FR    IT 

 










Legend :    VFR   Marginal VFR   IFR   Intensive IFR   Very Intensive IFR
Visi :
Ceiling :
>= 8 km
>= 3000ft
5 to 8 km
1000 to 3000 ft
1500m to 5 km
500 to 1000 ft
800 to 1500m
200 to 500 ft
< 800m
< 200 ft
Symbols :   Thunderstorms  Fog  Heavy snow  Heavy precipitations  Wind > 20 kt
SIGMETs :     Misc.  Thunderstorms  Icing  Turbulence  Mountain Waves  Volcanic Ashes







- Airport Elevation : 266 ft
- IATA code : NCL
- Download approach charts


EGNT - Newcastle

CURRENT METAR :
  • 182250Z 28007KT CAVOK 02/M02 Q1019

EXPIRED METARs :
  • 182220Z 27008KT CAVOK 02/M01 Q1018
  • 182150Z 27012KT CAVOK 02/M01 Q1018
  • 182120Z 28012KT CAVOK 03/M01 Q1018
  • 182050Z 29011KT CAVOK 03/M01 Q1018
  • 182020Z 29009KT CAVOK 03/M00 Q1018

TAF TAF EGNT
Valid from the 18 at 18:00 until the 19 at 18:00 UTC


181701Z 1818/1918 27008KT 9999 FEW035
PROB30
TEMPO 1900/1909 7000
ATIS : +44 191 214 3400
No reported NOTAMs for that airfield.
2 SIGMETs reported for the Scottish FIR (EGPX) :
 
Severe turbulence
EGPX SIGMET 07 VALID 182330/190330 EGRR
EGPX SCOTTISH FIR SEV TURB FCST WI N5700 E00500 - N5519 E00500 - N5522 E00405 - N5756 E00000 - N5753 E00332 - N5700 E00500 SFC/FL060 MOV SSE 10KT NC=
Severe turbulence
EGPX SIGMET 06 VALID 182000/182330 EGRR
EGPX SCOTTISH FIR SEV TURB FCST NE OF LINE N5527 E00500 - N6100 W00332 SFC/FL060 STNR NC=



MET'MAP, your aeronautical weather chart ! - Copyright ORBIFLY December 2007 - Disclaimer

ORBIFLY MET'MAP TEAM :

Programming & Development : Alexandra Zaïnal
Concept & Development : Baudouin d'Aumeries
Co-Development & Prog : Marc-Olivier Méhu
Technical & hardware support : Manuel Goepfert

Contact : metmap@orbifly.com




SOURCES & CREDITS :

   NOAA